createdAt,value
2023-01-19T00:01:06.586Z,99620.69
2023-01-19T00:03:37.882Z,99621.91
2023-01-19T00:06:08.781Z,99620.44
2023-01-19T00:08:39.156Z,99620.66
2023-01-19T00:11:09.995Z,99627.47
2023-01-19T00:13:49.633Z,99629.88
2023-01-19T00:16:23.212Z,99632.84
2023-01-19T00:18:55.693Z,99635.59
2023-01-19T00:21:26.124Z,99642.00
2023-01-19T00:23:56.545Z,99645.81
2023-01-19T00:26:26.895Z,99649.31
2023-01-19T00:29:00.434Z,99652.72
2023-01-19T00:31:34.083Z,99650.91
2023-01-19T00:34:12.199Z,99659.38
2023-01-19T00:36:42.725Z,99661.13
2023-01-19T00:39:13.247Z,99666.22
2023-01-19T00:41:56.711Z,99659.13
2023-01-19T00:44:29.532Z,99663.75
2023-01-19T00:47:01.267Z,99663.28
2023-01-19T00:49:32.922Z,99661.00
2023-01-19T00:52:04.375Z,99660.44
2023-01-19T00:54:35.148Z,99662.56
2023-01-19T00:57:06.835Z,99678.16
2023-01-19T00:59:40.297Z,99678.25
2023-01-19T01:02:12.183Z,99684.34
2023-01-19T01:04:42.854Z,99682.41
2023-01-19T01:07:13.416Z,99687.38
2023-01-19T01:09:46.972Z,99682.59
2023-01-19T01:12:17.832Z,99678.91
2023-01-19T01:14:50.756Z,99671.97
2023-01-19T01:17:25.213Z,99679.09
2023-01-19T01:19:55.635Z,99679.81
2023-01-19T01:22:26.468Z,99680.09
2023-01-19T01:24:57.071Z,99680.28
2023-01-19T01:27:27.837Z,99680.28
2023-01-19T01:30:01.485Z,99679.94
2023-01-19T01:32:32.206Z,99675.94
2023-01-19T01:35:02.785Z,99677.88
2023-01-19T01:37:33.388Z,99682.59
2023-01-19T01:40:04.403Z,99678.16
2023-01-19T01:42:36.592Z,99678.06
2023-01-19T01:45:24.979Z,99679.09
2023-01-19T01:47:58.251Z,99690.34
2023-01-19T01:50:32.346Z,99687.84
2023-01-19T01:53:07.480Z,99688.50
2023-01-19T01:55:41.883Z,99686.72
2023-01-19T01:58:13.389Z,99696.78
2023-01-19T02:00:59.659Z,99686.53
2023-01-19T02:03:33.241Z,99692.63
2023-01-19T02:06:12.195Z,99693.28
2023-01-19T02:09:02.246Z,99698.63
2023-01-19T02:11:47.179Z,99690.97
2023-01-19T02:14:19.857Z,99691.81
2023-01-19T02:16:52.996Z,99690.34
2023-01-19T02:19:29.282Z,99687.09
2023-01-19T02:22:07.658Z,99687.91
2023-01-19T02:24:41.167Z,99689.56
2023-01-19T02:27:12.475Z,99692.88
2023-01-19T02:29:44.295Z,99692.56
2023-01-19T02:32:14.927Z,99688.03
2023-01-19T02:34:45.418Z,99688.34
2023-01-19T02:37:18.591Z,99682.75
2023-01-19T02:39:55.936Z,99681.56
2023-01-19T02:42:32.813Z,99680.78
2023-01-19T02:45:06.803Z,99681.72
2023-01-19T02:47:43.112Z,99683.66
2023-01-19T02:50:41.713Z,99682.00
2023-01-19T02:53:52.956Z,99682.91
2023-01-19T02:56:40.862Z,99698.28
2023-01-19T02:59:19.401Z,99679.97
2023-01-19T03:02:04.254Z,99692.66
2023-01-19T03:04:47.794Z,99691.75
2023-01-19T03:07:28.093Z,99692.72
2023-01-19T03:10:05.398Z,99679.28
2023-01-19T03:12:43.598Z,99680.69
2023-01-19T03:15:20.411Z,99688.50
2023-01-19T03:17:53.006Z,99688.00
2023-01-19T03:20:25.608Z,99681.09
2023-01-19T03:23:01.045Z,99681.19
2023-01-19T03:25:34.476Z,99680.53
2023-01-19T03:28:08.218Z,99686.69
2023-01-19T03:30:42.651Z,99689.19
2023-01-19T03:33:18.881Z,99695.50
2023-01-19T03:35:52.121Z,99695.50
2023-01-19T03:38:27.861Z,99692.25
2023-01-19T03:41:02.801Z,99695.84
2023-01-19T03:43:38.461Z,99694.25
2023-01-19T03:46:10.993Z,99700.41
2023-01-19T03:48:42.123Z,99696.09
2023-01-19T03:51:14.465Z,99702.06
2023-01-19T03:53:45.309Z,99689.19
2023-01-19T03:56:20.955Z,99699.50
2023-01-19T03:58:56.169Z,99697.94
2023-01-19T04:01:26.768Z,99702.59
2023-01-19T04:03:57.315Z,99702.50
2023-01-19T04:06:30.449Z,99706.81
2023-01-19T04:09:00.673Z,99702.41
2023-01-19T04:11:30.554Z,99708.31
2023-01-19T04:14:03.408Z,99703.44
2023-01-19T04:16:33.349Z,99708.91
2023-01-19T04:19:03.580Z,99706.47
2023-01-19T04:21:33.577Z,99712.56
2023-01-19T04:24:03.767Z,99712.72
2023-01-19T04:26:33.743Z,99714.78
2023-01-19T04:29:08.832Z,99715.88
2023-01-19T04:31:39.087Z,99709.06
2023-01-19T04:34:09.695Z,99715.13
2023-01-19T04:36:39.605Z,99719.69
2023-01-19T04:39:10.425Z,99712.88
2023-01-19T04:41:40.555Z,99714.78
2023-01-19T04:44:13.617Z,99717.63
2023-01-19T04:46:43.574Z,99713.38
2023-01-19T04:49:13.999Z,99722.81
2023-01-19T04:51:44.062Z,99717.09
2023-01-19T04:54:14.347Z,99721.66
2023-01-19T04:56:44.322Z,99709.91
2023-01-19T04:59:17.814Z,99709.22
2023-01-19T05:01:47.738Z,99716.16
2023-01-19T05:04:18.087Z,99713.81
2023-01-19T05:06:48.297Z,99707.16
2023-01-19T05:09:18.656Z,99706.63
2023-01-19T05:11:48.925Z,99710.09
2023-01-19T05:14:21.919Z,99710.78
2023-01-19T05:16:51.822Z,99714.81
2023-01-19T05:19:22.150Z,99721.78
2023-01-19T05:21:52.224Z,99716.75
2023-01-19T05:24:22.547Z,99722.00
2023-01-19T05:26:52.547Z,99721.31
2023-01-19T05:29:25.661Z,99725.97
2023-01-19T05:31:55.825Z,99722.88
2023-01-19T05:34:27.127Z,99728.97
2023-01-19T05:36:57.021Z,99727.16
2023-01-19T05:39:27.376Z,99726.09
2023-01-19T05:41:57.356Z,99725.97
2023-01-19T05:44:30.529Z,99731.63
2023-01-19T05:47:00.829Z,99738.25
2023-01-19T05:49:31.519Z,99740.03
2023-01-19T05:52:01.579Z,99736.84
2023-01-19T05:54:31.903Z,99741.09
2023-01-19T05:57:03.038Z,99749.78
2023-01-19T05:59:35.985Z,99741.09
2023-01-19T06:02:06.010Z,99752.97
2023-01-19T06:04:36.331Z,99752.69
2023-01-19T06:07:07.573Z,99756.16
2023-01-19T06:09:37.809Z,99764.63
2023-01-19T06:12:08.846Z,99757.13
2023-01-19T06:14:41.701Z,99764.63
2023-01-19T06:17:11.852Z,99753.09
2023-01-19T06:19:42.191Z,99757.34
2023-01-19T06:22:12.204Z,99755.00
2023-01-19T06:24:42.823Z,99760.16
2023-01-19T06:27:14.081Z,99755.91
2023-01-19T06:29:47.088Z,99756.66
2023-01-19T06:32:17.490Z,99751.50
2023-01-19T06:34:47.738Z,99744.63
2023-01-19T06:37:17.911Z,99752.44
2023-01-19T06:39:48.135Z,99757.50
2023-01-19T06:42:18.171Z,99760.16
2023-01-19T06:44:51.280Z,99756.81
2023-01-19T06:47:21.310Z,99764.78
2023-01-19T06:49:51.767Z,99769.25
2023-01-19T06:52:21.755Z,99754.41
2023-01-19T06:54:51.984Z,99761.97
2023-01-19T06:57:21.996Z,99763.94
2023-01-19T06:59:54.947Z,99757.72
2023-01-19T07:02:26.255Z,99765.63
2023-01-19T07:04:58.470Z,99761.44
2023-01-19T07:07:28.821Z,99763.34
2023-01-19T07:09:59.075Z,99776.44
2023-01-19T07:12:29.017Z,99777.50
2023-01-19T07:15:01.838Z,99787.13
2023-01-19T07:17:31.851Z,99786.38
2023-01-19T07:20:03.081Z,99794.25
2023-01-19T07:22:33.076Z,99797.03
2023-01-19T07:25:03.439Z,99792.78
2023-01-19T07:27:33.358Z,99788.34
2023-01-19T07:30:07.432Z,99793.56
2023-01-19T07:32:37.920Z,99794.19
2023-01-19T07:35:08.723Z,99799.22
2023-01-19T07:37:38.935Z,99804.38
2023-01-19T07:40:10.287Z,99792.50
2023-01-19T07:42:40.401Z,99795.25
2023-01-19T07:45:15.202Z,99794.44
2023-01-19T07:47:46.254Z,99795.31
2023-01-19T07:50:21.279Z,99800.38
2023-01-19T07:52:53.430Z,99810.38
2023-01-19T07:55:25.154Z,99804.47
2023-01-19T07:57:55.449Z,99806.66
2023-01-19T08:00:28.804Z,99805.53
2023-01-19T08:03:03.350Z,99812.28
2023-01-19T08:05:35.578Z,99813.56
2023-01-19T08:08:05.925Z,99819.16
2023-01-19T08:10:36.608Z,99825.13
2023-01-19T08:13:06.953Z,99827.63
2023-01-19T08:15:40.285Z,99823.94
2023-01-19T08:18:11.702Z,99832.16
2023-01-19T08:20:42.254Z,99832.47
2023-01-19T08:23:12.744Z,99832.16
2023-01-19T08:25:46.015Z,99829.41
2023-01-19T08:28:17.932Z,99835.09
2023-01-19T08:30:54.294Z,99836.53
2023-01-19T08:33:25.702Z,99829.28
2023-01-19T08:35:56.845Z,99842.88
2023-01-19T08:38:27.050Z,99838.22
2023-01-19T08:40:57.594Z,99846.38
2023-01-19T08:43:27.814Z,99840.81
2023-01-19T08:46:01.121Z,99842.56
2023-01-19T08:48:31.447Z,99845.25
2023-01-19T08:51:02.437Z,99842.41
2023-01-19T08:53:32.543Z,99841.19
2023-01-19T08:56:03.521Z,99839.41
2023-01-19T08:58:33.752Z,99839.09
2023-01-19T09:01:06.846Z,99848.75
2023-01-19T09:03:36.982Z,99850.94
2023-01-19T09:06:08.797Z,99854.66
2023-01-19T09:08:39.279Z,99855.75
2023-01-19T09:11:13.894Z,99857.13
2023-01-19T09:13:44.073Z,99858.31
2023-01-19T09:16:17.043Z,99862.63
2023-01-19T09:18:47.753Z,99859.53
2023-01-19T09:21:18.631Z,99863.97
2023-01-19T09:23:49.218Z,99866.59
2023-01-19T09:26:19.713Z,99866.22
2023-01-19T09:28:49.751Z,99872.13
2023-01-19T09:31:22.682Z,99862.72
2023-01-19T09:33:52.826Z,99861.44
2023-01-19T09:36:23.033Z,99863.16
2023-01-19T09:38:52.971Z,99866.72
2023-01-19T09:41:26.132Z,99865.91
2023-01-19T09:43:59.876Z,99863.63
2023-01-19T09:46:38.931Z,99870.72
2023-01-19T09:49:16.295Z,99856.69
2023-01-19T09:51:50.695Z,99857.34
2023-01-19T09:54:22.554Z,99855.31
2023-01-19T09:56:53.250Z,99857.34
2023-01-19T09:59:26.218Z,99865.38
2023-01-19T10:02:19.793Z,99862.88
2023-01-19T10:05:00.907Z,99853.41
2023-01-19T10:07:55.859Z,99860.09
2023-01-19T10:10:28.596Z,99852.88
2023-01-19T10:13:11.208Z,99849.63
2023-01-19T10:15:48.996Z,99839.81
2023-01-19T10:18:33.113Z,99845.31
2023-01-19T10:21:08.749Z,99850.88
2023-01-19T10:23:43.997Z,99843.03
2023-01-19T10:26:18.831Z,99842.91
2023-01-19T10:28:52.205Z,99838.56
2023-01-19T10:31:25.780Z,99839.50
2023-01-19T10:33:58.789Z,99835.13
2023-01-19T10:36:32.357Z,99837.22
2023-01-19T10:39:02.703Z,99829.50
2023-01-19T10:41:38.804Z,99824.56
2023-01-19T10:44:10.737Z,99835.47
2023-01-19T10:46:46.670Z,99832.69
2023-01-19T10:49:31.576Z,99833.75
2023-01-19T10:52:02.802Z,99833.31
2023-01-19T10:54:36.328Z,99825.94
2023-01-19T10:57:12.356Z,99835.59
2023-01-19T10:59:51.546Z,99837.16
2023-01-19T11:02:26.609Z,99838.50
2023-01-19T11:05:01.636Z,99832.28
2023-01-19T11:07:33.607Z,99836.19
2023-01-19T11:10:25.938Z,99819.63
2023-01-19T11:13:04.079Z,99820.34
2023-01-19T11:15:37.298Z,99823.53
2023-01-19T11:18:08.966Z,99820.66
2023-01-19T11:20:55.192Z,99823.25
2023-01-19T11:23:29.636Z,99821.72
2023-01-19T11:26:02.406Z,99815.75
2023-01-19T11:28:35.691Z,99824.28
2023-01-19T11:31:19.567Z,99813.75
2023-01-19T11:33:53.646Z,99808.00
2023-01-19T11:36:28.669Z,99805.28
2023-01-19T11:39:00.486Z,99794.81
2023-01-19T11:41:32.493Z,99798.25
2023-01-19T11:44:12.623Z,99793.88
2023-01-19T11:46:47.941Z,99780.09
2023-01-19T11:49:24.969Z,99793.13
2023-01-19T11:52:04.916Z,99800.63
2023-01-19T11:54:38.913Z,99793.03
2023-01-19T11:57:15.550Z,99802.75
2023-01-19T11:59:47.824Z,99790.28
2023-01-19T12:02:28.210Z,99792.09
2023-01-19T12:05:02.439Z,99790.97
2023-01-19T12:07:39.051Z,99789.75
2023-01-19T12:10:23.378Z,99781.28
2023-01-19T12:12:55.381Z,99784.31
2023-01-19T12:15:32.195Z,99786.19
2023-01-19T12:18:04.951Z,99798.09
2023-01-19T12:20:39.800Z,99793.19
2023-01-19T12:23:27.773Z,99788.78
2023-01-19T12:26:11.708Z,99797.53
2023-01-19T12:28:45.208Z,99788.88
2023-01-19T12:31:18.723Z,99795.81
2023-01-19T12:33:49.883Z,99792.94
2023-01-19T12:36:38.594Z,99800.69
2023-01-19T12:39:19.559Z,99802.13
2023-01-19T12:41:51.204Z,99805.63
2023-01-19T12:44:34.255Z,99808.56
2023-01-19T12:47:24.430Z,99806.41
2023-01-19T12:49:59.578Z,99808.31
2023-01-19T12:52:34.464Z,99799.63
2023-01-19T12:55:19.434Z,99800.47
2023-01-19T12:58:03.629Z,99804.38
2023-01-19T13:00:37.150Z,99809.59
2023-01-19T13:03:23.670Z,99820.31
2023-01-19T13:05:56.469Z,99817.16
2023-01-19T13:08:29.901Z,99830.44
2023-01-19T13:11:27.108Z,99822.91
2023-01-19T13:14:31.358Z,99830.44
2023-01-19T13:17:29.485Z,99828.59
2023-01-19T13:20:28.210Z,99824.97
2023-01-19T13:23:21.627Z,99837.97
2023-01-19T13:25:56.163Z,99823.78
2023-01-19T13:28:35.161Z,99822.25
2023-01-19T13:31:07.091Z,99836.84
2023-01-19T13:33:46.776Z,99834.38
2023-01-19T13:36:24.229Z,99839.38
2023-01-19T13:38:55.631Z,99856.56
2023-01-19T13:41:28.932Z,99846.31
2023-01-19T13:44:06.110Z,99851.41
2023-01-19T13:46:38.515Z,99844.03
2023-01-19T13:49:20.422Z,99848.53
2023-01-19T13:52:07.127Z,99860.31
2023-01-19T13:54:37.484Z,99849.19
2023-01-19T13:57:24.573Z,99849.94
2023-01-19T14:00:11.926Z,99855.19
2023-01-19T14:02:43.261Z,99847.69
2023-01-19T14:05:17.972Z,99859.66
2023-01-19T14:07:48.203Z,99856.72
2023-01-19T14:10:19.403Z,99857.88
2023-01-19T14:13:00.527Z,99860.72
2023-01-19T14:15:35.678Z,99861.56
2023-01-19T14:18:27.086Z,99871.13
2023-01-19T14:21:01.018Z,99874.00
2023-01-19T14:23:43.419Z,99877.88
2023-01-19T14:26:46.486Z,99865.19
2023-01-19T14:29:29.550Z,99877.47
2023-01-19T14:32:16.336Z,99877.94
2023-01-19T14:34:49.699Z,99867.88
2023-01-19T14:37:23.552Z,99876.19
2023-01-19T14:39:57.881Z,99870.81
2023-01-19T14:42:31.506Z,99887.94
2023-01-19T14:45:03.717Z,99881.66
2023-01-19T14:47:39.664Z,99882.34
2023-01-19T14:50:21.225Z,99877.28
2023-01-19T14:52:55.633Z,99883.75
2023-01-19T14:55:28.994Z,99882.22
2023-01-19T14:57:59.328Z,99879.44
2023-01-19T15:00:29.798Z,99881.34
2023-01-19T15:03:02.639Z,99878.59
2023-01-19T15:05:32.673Z,99874.94
2023-01-19T15:08:05.548Z,99878.41
2023-01-19T15:10:37.831Z,99877.59
2023-01-19T15:13:08.348Z,99895.66
2023-01-19T15:15:38.557Z,99895.50
2023-01-19T15:18:18.095Z,99895.66
2023-01-19T15:20:48.139Z,99886.75
2023-01-19T15:23:18.329Z,99887.38
2023-01-19T15:25:48.269Z,99897.47
2023-01-19T15:28:21.631Z,99895.13
2023-01-19T15:30:53.789Z,99892.91
2023-01-19T15:33:30.393Z,99891.00
2023-01-19T15:36:00.396Z,99898.66
2023-01-19T15:38:30.794Z,99896.81
2023-01-19T15:41:00.803Z,99894.59
2023-01-19T15:43:31.270Z,99900.13
2023-01-19T15:46:06.341Z,99894.09
2023-01-19T15:48:39.248Z,99894.94
2023-01-19T15:51:13.065Z,99906.88
2023-01-19T15:53:43.884Z,99900.50
2023-01-19T15:56:18.108Z,99901.91
2023-01-19T15:58:48.886Z,99897.09
2023-01-19T16:01:21.362Z,99904.47
2023-01-19T16:03:54.443Z,99902.84
2023-01-19T16:06:24.808Z,99898.81
2023-01-19T16:08:59.218Z,99909.38
2023-01-19T16:11:30.259Z,99896.75
2023-01-19T16:14:01.236Z,99901.88
2023-01-19T16:16:31.757Z,99903.06
2023-01-19T16:19:04.983Z,99907.41
2023-01-19T16:21:34.895Z,99911.44
2023-01-19T16:24:05.189Z,99905.91
2023-01-19T16:26:37.543Z,99904.72
2023-01-19T16:29:10.997Z,99902.44
2023-01-19T16:31:42.735Z,99912.47
2023-01-19T16:34:16.036Z,99911.09
2023-01-19T16:36:46.032Z,99909.22
2023-01-19T16:39:17.541Z,99918.81
2023-01-19T16:41:48.358Z,99916.78
2023-01-19T16:44:19.325Z,99906.63
2023-01-19T16:46:51.240Z,99908.94
2023-01-19T16:49:28.274Z,99905.59
2023-01-19T16:51:59.463Z,99909.97
2023-01-19T16:54:32.193Z,99912.97
2023-01-19T16:57:02.364Z,99909.41
2023-01-19T16:59:32.714Z,99916.41
2023-01-19T17:02:04.111Z,99919.81
2023-01-19T17:04:37.775Z,99922.88
2023-01-19T17:07:07.880Z,99916.53
2023-01-19T17:09:38.377Z,99925.88
2023-01-19T17:12:12.464Z,99923.72
2023-01-19T17:14:43.229Z,99925.22
2023-01-19T17:17:13.592Z,99927.81
2023-01-19T17:19:47.935Z,99932.78
2023-01-19T17:22:17.936Z,99929.69
2023-01-19T17:24:49.896Z,99924.53
2023-01-19T17:27:19.931Z,99920.53
2023-01-19T17:29:51.959Z,99922.63
2023-01-19T17:32:22.099Z,99923.16
2023-01-19T17:34:55.116Z,99928.88
2023-01-19T17:37:25.066Z,99926.63
2023-01-19T17:39:55.330Z,99927.66
2023-01-19T17:42:25.236Z,99935.75
2023-01-19T17:44:55.660Z,99931.59
2023-01-19T17:47:26.068Z,99940.63
2023-01-19T17:49:59.548Z,99946.22
2023-01-19T17:52:29.914Z,99944.88
2023-01-19T17:55:00.458Z,99946.03
2023-01-19T17:57:31.119Z,99946.03
2023-01-19T18:00:03.376Z,99950.06
2023-01-19T18:02:34.490Z,99958.06
2023-01-19T18:05:12.588Z,99950.78
2023-01-19T18:07:42.956Z,99962.09
2023-01-19T18:10:14.565Z,99962.53
2023-01-19T18:12:45.232Z,99966.13
2023-01-19T18:15:17.015Z,99962.31
2023-01-19T18:17:47.131Z,99963.66
2023-01-19T18:20:20.205Z,99968.00
2023-01-19T18:22:50.500Z,99971.97
2023-01-19T18:25:20.807Z,99961.47
2023-01-19T18:27:50.870Z,99973.94
2023-01-19T18:30:22.412Z,99977.66
2023-01-19T18:32:52.772Z,99979.63
2023-01-19T18:35:25.789Z,99978.59
2023-01-19T18:37:57.021Z,99979.75
2023-01-19T18:40:27.355Z,99977.88
2023-01-19T18:42:58.077Z,99979.31
2023-01-19T18:45:28.648Z,99969.22
2023-01-19T18:47:58.591Z,99975.69
2023-01-19T18:50:31.488Z,99977.88
2023-01-19T18:53:01.639Z,99981.50
2023-01-19T18:55:31.870Z,99983.50
2023-01-19T18:58:04.206Z,99994.47
2023-01-19T19:00:34.492Z,99992.31
2023-01-19T19:03:07.242Z,99995.94
2023-01-19T19:05:40.743Z,99997.91
2023-01-19T19:08:11.217Z,100002.97
2023-01-19T19:10:43.486Z,100000.19
2023-01-19T19:13:15.323Z,100012.31
2023-01-19T19:15:46.176Z,100012.41
2023-01-19T19:18:16.327Z,100017.31
2023-01-19T19:20:49.305Z,100020.34
2023-01-19T19:23:19.223Z,100016.63
2023-01-19T19:25:49.620Z,100019.72
2023-01-19T19:28:19.545Z,100026.38
2023-01-19T19:30:52.582Z,100032.19
2023-01-19T19:33:22.533Z,100030.84
2023-01-19T19:36:01.879Z,100037.47
2023-01-19T19:38:31.903Z,100037.06
2023-01-19T19:41:07.071Z,100041.00
2023-01-19T19:43:38.122Z,100040.91
2023-01-19T19:46:11.108Z,100047.53
2023-01-19T19:48:42.351Z,100047.13
2023-01-19T19:51:19.044Z,100049.91
2023-01-19T19:53:51.755Z,100049.41
2023-01-19T19:56:24.610Z,100049.63
2023-01-19T19:58:57.345Z,100053.88
2023-01-19T20:01:33.445Z,100048.59
2023-01-19T20:04:08.811Z,100059.16
2023-01-19T20:06:44.682Z,100067.47
2023-01-19T20:09:16.687Z,100059.28
2023-01-19T20:11:51.416Z,100069.88
2023-01-19T20:14:22.528Z,100071.53
2023-01-19T20:16:54.365Z,100066.03
2023-01-19T20:19:24.304Z,100064.81
2023-01-19T20:21:57.977Z,100073.44
2023-01-19T20:24:28.188Z,100074.56
2023-01-19T20:26:58.887Z,100077.91
2023-01-19T20:29:29.519Z,100080.50
2023-01-19T20:32:00.047Z,100088.38
2023-01-19T20:34:33.660Z,100082.94
2023-01-19T20:37:06.699Z,100089.00
2023-01-19T20:39:37.258Z,100087.13
2023-01-19T20:42:11.281Z,100087.66
2023-01-19T20:44:41.233Z,100086.91
2023-01-19T20:47:12.505Z,100089.00
2023-01-19T20:49:43.052Z,100091.78
2023-01-19T20:52:15.939Z,100100.28
2023-01-19T20:54:45.877Z,100096.53
2023-01-19T20:57:16.645Z,100101.59
2023-01-19T20:59:46.573Z,100099.13
2023-01-19T21:02:17.460Z,100103.09
2023-01-19T21:04:47.491Z,100108.66
2023-01-19T21:07:20.530Z,100107.72
2023-01-19T21:09:50.573Z,100108.97
2023-01-19T21:12:22.954Z,100117.19
2023-01-19T21:14:52.951Z,100121.28
2023-01-19T21:17:23.817Z,100127.75
2023-01-19T21:19:53.922Z,100132.13
2023-01-19T21:22:27.257Z,100131.59
2023-01-19T21:24:57.292Z,100138.25
2023-01-19T21:27:27.867Z,100141.06
2023-01-19T21:30:00.843Z,100143.00
2023-01-19T21:32:31.588Z,100141.06
2023-01-19T21:35:01.519Z,100145.13
2023-01-19T21:37:34.741Z,100148.16
2023-01-19T21:40:04.720Z,100154.25
2023-01-19T21:42:35.150Z,100154.56
2023-01-19T21:45:05.444Z,100160.47
2023-01-19T21:47:37.390Z,100170.03
2023-01-19T21:50:08.086Z,100169.72
2023-01-19T21:52:41.087Z,100174.09
2023-01-19T21:55:12.175Z,100173.66
2023-01-19T21:57:42.533Z,100182.25
2023-01-19T22:00:14.099Z,100185.38
2023-01-19T22:02:52.081Z,100183.25
2023-01-19T22:05:28.571Z,100181.91
2023-01-19T22:08:01.358Z,100189.09
2023-01-19T22:10:31.467Z,100182.78
2023-01-19T22:13:01.780Z,100191.63
2023-01-19T22:15:33.311Z,100201.28
2023-01-19T22:18:03.893Z,100210.72
2023-01-19T22:20:34.402Z,100207.00
2023-01-19T22:23:07.542Z,100213.13
2023-01-19T22:25:37.755Z,100212.00
2023-01-19T22:28:08.317Z,100214.97
2023-01-19T22:30:38.614Z,100224.91
2023-01-19T22:33:09.311Z,100227.50
2023-01-19T22:35:39.592Z,100228.16
2023-01-19T22:38:12.743Z,100229.16
2023-01-19T22:40:42.996Z,100235.47
2023-01-19T22:43:13.606Z,100229.28
2023-01-19T22:45:44.235Z,100234.28
2023-01-19T22:48:14.919Z,100223.53
2023-01-19T22:50:45.237Z,100229.63
2023-01-19T22:53:18.457Z,100237.63
2023-01-19T22:55:48.644Z,100235.69
2023-01-19T22:58:34.846Z,100235.56
2023-01-19T23:01:08.021Z,100237.34
2023-01-19T23:03:39.255Z,100236.88
2023-01-19T23:06:11.633Z,100232.50
2023-01-19T23:08:45.089Z,100235.63
2023-01-19T23:11:17.482Z,100238.16
2023-01-19T23:13:47.925Z,100236.56
2023-01-19T23:16:18.754Z,100238.63
2023-01-19T23:18:49.242Z,100247.25
2023-01-19T23:21:21.151Z,100248.91
2023-01-19T23:23:56.921Z,100253.38
2023-01-19T23:26:28.068Z,100251.50
2023-01-19T23:29:00.495Z,100261.03
2023-01-19T23:31:33.050Z,100259.28
2023-01-19T23:34:05.059Z,100267.28
2023-01-19T23:36:36.975Z,100272.16
2023-01-19T23:39:14.599Z,100270.41
2023-01-19T23:41:45.266Z,100270.59
2023-01-19T23:44:17.145Z,100279.22
2023-01-19T23:46:47.330Z,100271.41
2023-01-19T23:49:18.173Z,100275.13
2023-01-19T23:51:48.051Z,100261.69
2023-01-19T23:54:21.115Z,100274.88
2023-01-19T23:56:51.207Z,100272.34
2023-01-19T23:59:21.599Z,100272.34
